<?xml version="1.0" encoding="UTF-8" standalone="no" ?>
<gpx xmlns="http://www.topografix.com/GPX/1/1" xmlns:xsi="http://www.w3.org/2001/XMLSchema-instance" xsi:schemaLocation="http://www.topografix.com/GPX/1/1 http://www.topografix.com/GPX/1/1/gpx.xsd" version="1.1" creator="VisuGPX - https://www.visugpx.com">
  <metadata>
    <name>17112024</name>
  </metadata>
  <trk>
    <name><![CDATA[17112024_1]]></name>
    <trkseg>
      <trkpt lat="44.33773" lon="2.63017">
        <ele>653.1</ele>
        <time>2024-11-17T07:23:49.000Z</time>
      </trkpt>
      <trkpt lat="44.33775" lon="2.63027">
        <ele>653.7</ele>
        <time>2024-11-17T07:23:58.000Z</time>
      </trkpt>
      <trkpt lat="44.33759" lon="2.63101">
        <ele>654.6</ele>
        <time>2024-11-17T07:24:38.000Z</time>
      </trkpt>
      <trkpt lat="44.33751" lon="2.63161">
        <ele>655.9</ele>
        <time>2024-11-17T07:25:10.000Z</time>
      </trkpt>
      <trkpt lat="44.33751" lon="2.63181">
        <ele>657.1</ele>
        <time>2024-11-17T07:25:19.000Z</time>
      </trkpt>
      <trkpt lat="44.33755" lon="2.63205">
        <ele>658.6</ele>
        <time>2024-11-17T07:25:31.000Z</time>
      </trkpt>
      <trkpt lat="44.33763" lon="2.63232">
        <ele>659.6</ele>
        <time>2024-11-17T07:25:48.000Z</time>
      </trkpt>
      <trkpt lat="44.33784" lon="2.63269">
        <ele>661.9</ele>
        <time>2024-11-17T07:26:14.000Z</time>
      </trkpt>
      <trkpt lat="44.33797" lon="2.63302">
        <ele>663.6</ele>
        <time>2024-11-17T07:26:33.000Z</time>
      </trkpt>
      <trkpt lat="44.33802" lon="2.63309">
        <ele>664</ele>
        <time>2024-11-17T07:26:39.000Z</time>
      </trkpt>
      <trkpt lat="44.33818" lon="2.63317">
        <ele>664.2</ele>
        <time>2024-11-17T07:26:52.000Z</time>
      </trkpt>
      <trkpt lat="44.33822" lon="2.63327">
        <ele>664.3</ele>
        <time>2024-11-17T07:26:59.000Z</time>
      </trkpt>
      <trkpt lat="44.33825" lon="2.63368">
        <ele>665.1</ele>
        <time>2024-11-17T07:27:18.000Z</time>
      </trkpt>
      <trkpt lat="44.33822" lon="2.63438">
        <ele>667.6</ele>
        <time>2024-11-17T07:27:55.000Z</time>
      </trkpt>
      <trkpt lat="44.33833" lon="2.63561">
        <ele>670</ele>
        <time>2024-11-17T07:28:56.000Z</time>
      </trkpt>
      <trkpt lat="44.3384" lon="2.63605">
        <ele>670</ele>
        <time>2024-11-17T07:29:16.000Z</time>
      </trkpt>
      <trkpt lat="44.33854" lon="2.63665">
        <ele>669.8</ele>
        <time>2024-11-17T07:29:48.000Z</time>
      </trkpt>
      <trkpt lat="44.33857" lon="2.63711">
        <ele>668.9</ele>
        <time>2024-11-17T07:30:10.000Z</time>
      </trkpt>
      <trkpt lat="44.33855" lon="2.638">
        <ele>668.8</ele>
        <time>2024-11-17T07:30:54.000Z</time>
      </trkpt>
      <trkpt lat="44.33865" lon="2.63902">
        <ele>667.6</ele>
        <time>2024-11-17T07:31:44.000Z</time>
      </trkpt>
      <trkpt lat="44.3387" lon="2.63911">
        <ele>667.5</ele>
        <time>2024-11-17T07:31:50.000Z</time>
      </trkpt>
      <trkpt lat="44.3388" lon="2.63915">
        <ele>667.7</ele>
        <time>2024-11-17T07:31:57.000Z</time>
      </trkpt>
      <trkpt lat="44.33918" lon="2.63909">
        <ele>667</ele>
        <time>2024-11-17T07:32:24.000Z</time>
      </trkpt>
      <trkpt lat="44.33926" lon="2.63914">
        <ele>666.6</ele>
        <time>2024-11-17T07:32:32.000Z</time>
      </trkpt>
      <trkpt lat="44.33951" lon="2.6398">
        <ele>665</ele>
        <time>2024-11-17T07:33:09.000Z</time>
      </trkpt>
      <trkpt lat="44.33976" lon="2.64038">
        <ele>664.9</ele>
        <time>2024-11-17T07:33:41.000Z</time>
      </trkpt>
      <trkpt lat="44.33996" lon="2.64104">
        <ele>665</ele>
        <time>2024-11-17T07:34:15.000Z</time>
      </trkpt>
      <trkpt lat="44.34037" lon="2.64206">
        <ele>663.6</ele>
        <time>2024-11-17T07:35:12.000Z</time>
      </trkpt>
      <trkpt lat="44.34046" lon="2.64238">
        <ele>662.7</ele>
        <time>2024-11-17T07:35:30.000Z</time>
      </trkpt>
      <trkpt lat="44.34042" lon="2.64255">
        <ele>662.8</ele>
        <time>2024-11-17T07:35:39.000Z</time>
      </trkpt>
      <trkpt lat="44.34023" lon="2.64285">
        <ele>663.3</ele>
        <time>2024-11-17T07:35:59.000Z</time>
      </trkpt>
      <trkpt lat="44.33981" lon="2.64365">
        <ele>665.4</ele>
        <time>2024-11-17T07:36:49.000Z</time>
      </trkpt>
      <trkpt lat="44.33963" lon="2.64437">
        <ele>666.6</ele>
        <time>2024-11-17T07:37:26.000Z</time>
      </trkpt>
      <trkpt lat="44.3391" lon="2.64564">
        <ele>669.2</ele>
        <time>2024-11-17T07:38:36.000Z</time>
      </trkpt>
      <trkpt lat="44.33889" lon="2.64628">
        <ele>670</ele>
        <time>2024-11-17T07:39:12.000Z</time>
      </trkpt>
      <trkpt lat="44.33873" lon="2.64662">
        <ele>670.5</ele>
        <time>2024-11-17T07:39:31.000Z</time>
      </trkpt>
      <trkpt lat="44.33852" lon="2.64722">
        <ele>670</ele>
        <time>2024-11-17T07:40:03.000Z</time>
      </trkpt>
      <trkpt lat="44.33849" lon="2.64768">
        <ele>670</ele>
        <time>2024-11-17T07:40:25.000Z</time>
      </trkpt>
      <trkpt lat="44.33849" lon="2.64896">
        <ele>671</ele>
        <time>2024-11-17T07:41:26.000Z</time>
      </trkpt>
      <trkpt lat="44.33846" lon="2.64935">
        <ele>671</ele>
        <time>2024-11-17T07:41:45.000Z</time>
      </trkpt>
      <trkpt lat="44.3383" lon="2.65014">
        <ele>672.9</ele>
        <time>2024-11-17T07:42:24.000Z</time>
      </trkpt>
      <trkpt lat="44.3382" lon="2.65088">
        <ele>674.2</ele>
        <time>2024-11-17T07:43:01.000Z</time>
      </trkpt>
      <trkpt lat="44.33814" lon="2.65175">
        <ele>676</ele>
        <time>2024-11-17T07:43:44.000Z</time>
      </trkpt>
      <trkpt lat="44.33806" lon="2.65195">
        <ele>677</ele>
        <time>2024-11-17T07:43:55.000Z</time>
      </trkpt>
      <trkpt lat="44.33796" lon="2.65203">
        <ele>676.8</ele>
        <time>2024-11-17T07:44:04.000Z</time>
      </trkpt>
      <trkpt lat="44.33768" lon="2.65201">
        <ele>676.2</ele>
        <time>2024-11-17T07:44:21.000Z</time>
      </trkpt>
      <trkpt lat="44.33709" lon="2.65162">
        <ele>674.8</ele>
        <time>2024-11-17T07:45:05.000Z</time>
      </trkpt>
      <trkpt lat="44.33666" lon="2.65144">
        <ele>674</ele>
        <time>2024-11-17T07:45:35.000Z</time>
      </trkpt>
      <trkpt lat="44.33651" lon="2.65134">
        <ele>673.3</ele>
        <time>2024-11-17T07:45:46.000Z</time>
      </trkpt>
      <trkpt lat="44.33617" lon="2.65123">
        <ele>672.4</ele>
        <time>2024-11-17T07:46:09.000Z</time>
      </trkpt>
      <trkpt lat="44.33595" lon="2.65105">
        <ele>671.3</ele>
        <time>2024-11-17T07:46:26.000Z</time>
      </trkpt>
      <trkpt lat="44.33575" lon="2.651">
        <ele>671</ele>
        <time>2024-11-17T07:46:39.000Z</time>
      </trkpt>
      <trkpt lat="44.33517" lon="2.6505">
        <ele>669.9</ele>
        <time>2024-11-17T07:47:24.000Z</time>
      </trkpt>
      <trkpt lat="44.335" lon="2.65044">
        <ele>669.6</ele>
        <time>2024-11-17T07:47:35.000Z</time>
      </trkpt>
      <trkpt lat="44.33458" lon="2.65014">
        <ele>667.7</ele>
        <time>2024-11-17T07:48:08.000Z</time>
      </trkpt>
      <trkpt lat="44.33438" lon="2.65007">
        <ele>667.2</ele>
        <time>2024-11-17T07:48:22.000Z</time>
      </trkpt>
      <trkpt lat="44.33409" lon="2.64983">
        <ele>666.9</ele>
        <time>2024-11-17T07:48:45.000Z</time>
      </trkpt>
      <trkpt lat="44.33375" lon="2.64979">
        <ele>666.3</ele>
        <time>2024-11-17T07:49:07.000Z</time>
      </trkpt>
      <trkpt lat="44.33346" lon="2.64965">
        <ele>665.6</ele>
        <time>2024-11-17T07:49:27.000Z</time>
      </trkpt>
      <trkpt lat="44.3332" lon="2.64947">
        <ele>665.4</ele>
        <time>2024-11-17T07:49:46.000Z</time>
      </trkpt>
      <trkpt lat="44.33305" lon="2.64926">
        <ele>665</ele>
        <time>2024-11-17T07:50:00.000Z</time>
      </trkpt>
      <trkpt lat="44.33267" lon="2.64886">
        <ele>664.6</ele>
        <time>2024-11-17T07:50:31.000Z</time>
      </trkpt>
      <trkpt lat="44.33245" lon="2.64868">
        <ele>663.8</ele>
        <time>2024-11-17T07:50:48.000Z</time>
      </trkpt>
      <trkpt lat="44.332" lon="2.64842">
        <ele>661.7</ele>
        <time>2024-11-17T07:51:20.000Z</time>
      </trkpt>
      <trkpt lat="44.33122" lon="2.64845">
        <ele>658.7</ele>
        <time>2024-11-17T07:52:10.000Z</time>
      </trkpt>
      <trkpt lat="44.33081" lon="2.64843">
        <ele>658.3</ele>
        <time>2024-11-17T07:52:37.000Z</time>
      </trkpt>
      <trkpt lat="44.33044" lon="2.64847">
        <ele>657.1</ele>
        <time>2024-11-17T07:53:03.000Z</time>
      </trkpt>
      <trkpt lat="44.32872" lon="2.64806">
        <ele>651.4</ele>
        <time>2024-11-17T07:55:00.000Z</time>
      </trkpt>
      <trkpt lat="44.32757" lon="2.6479">
        <ele>640.6</ele>
        <time>2024-11-17T07:56:19.000Z</time>
      </trkpt>
      <trkpt lat="44.32719" lon="2.64789">
        <ele>636.8</ele>
        <time>2024-11-17T07:56:45.000Z</time>
      </trkpt>
      <trkpt lat="44.32696" lon="2.64782">
        <ele>635.2</ele>
        <time>2024-11-17T07:57:02.000Z</time>
      </trkpt>
      <trkpt lat="44.3267" lon="2.64787">
        <ele>635.9</ele>
        <time>2024-11-17T07:57:19.000Z</time>
      </trkpt>
      <trkpt lat="44.32642" lon="2.64786">
        <ele>637.8</ele>
        <time>2024-11-17T07:57:40.000Z</time>
      </trkpt>
      <trkpt lat="44.32604" lon="2.64803">
        <ele>640.5</ele>
        <time>2024-11-17T07:58:08.000Z</time>
      </trkpt>
      <trkpt lat="44.32524" lon="2.64802">
        <ele>647.4</ele>
        <time>2024-11-17T07:59:02.000Z</time>
      </trkpt>
      <trkpt lat="44.32485" lon="2.64793">
        <ele>651.6</ele>
        <time>2024-11-17T07:59:30.000Z</time>
      </trkpt>
      <trkpt lat="44.32458" lon="2.64777">
        <ele>654.5</ele>
        <time>2024-11-17T07:59:52.000Z</time>
      </trkpt>
      <trkpt lat="44.32434" lon="2.64772">
        <ele>656.2</ele>
        <time>2024-11-17T08:00:10.000Z</time>
      </trkpt>
      <trkpt lat="44.32394" lon="2.64748">
        <ele>658.6</ele>
        <time>2024-11-17T08:00:42.000Z</time>
      </trkpt>
      <trkpt lat="44.32367" lon="2.64744">
        <ele>660.4</ele>
        <time>2024-11-17T08:01:02.000Z</time>
      </trkpt>
      <trkpt lat="44.32355" lon="2.64748">
        <ele>661.2</ele>
        <time>2024-11-17T08:01:11.000Z</time>
      </trkpt>
      <trkpt lat="44.32338" lon="2.64761">
        <ele>661.8</ele>
        <time>2024-11-17T08:01:24.000Z</time>
      </trkpt>
      <trkpt lat="44.32309" lon="2.64816">
        <ele>663.8</ele>
        <time>2024-11-17T08:01:57.000Z</time>
      </trkpt>
      <trkpt lat="44.32303" lon="2.64821">
        <ele>664.2</ele>
        <time>2024-11-17T08:02:02.000Z</time>
      </trkpt>
      <trkpt lat="44.32298" lon="2.6482">
        <ele>664.6</ele>
        <time>2024-11-17T08:02:06.000Z</time>
      </trkpt>
      <trkpt lat="44.32282" lon="2.64791">
        <ele>665.7</ele>
        <time>2024-11-17T08:02:24.000Z</time>
      </trkpt>
      <trkpt lat="44.32264" lon="2.64718">
        <ele>667.1</ele>
        <time>2024-11-17T08:03:00.000Z</time>
      </trkpt>
      <trkpt lat="44.32248" lon="2.64689">
        <ele>669.2</ele>
        <time>2024-11-17T08:03:15.000Z</time>
      </trkpt>
      <trkpt lat="44.32234" lon="2.64674">
        <ele>670.8</ele>
        <time>2024-11-17T08:03:26.000Z</time>
      </trkpt>
      <trkpt lat="44.32217" lon="2.64663">
        <ele>672.7</ele>
        <time>2024-11-17T08:03:37.000Z</time>
      </trkpt>
      <trkpt lat="44.32161" lon="2.64654">
        <ele>677.2</ele>
        <time>2024-11-17T08:04:09.000Z</time>
      </trkpt>
      <trkpt lat="44.32154" lon="2.64648">
        <ele>677.4</ele>
        <time>2024-11-17T08:04:15.000Z</time>
      </trkpt>
      <trkpt lat="44.3215" lon="2.64637">
        <ele>677.6</ele>
        <time>2024-11-17T08:04:21.000Z</time>
      </trkpt>
      <trkpt lat="44.32149" lon="2.64604">
        <ele>677</ele>
        <time>2024-11-17T08:04:37.000Z</time>
      </trkpt>
      <trkpt lat="44.32143" lon="2.64572">
        <ele>676.7</ele>
        <time>2024-11-17T08:04:53.000Z</time>
      </trkpt>
      <trkpt lat="44.32151" lon="2.64534">
        <ele>676</ele>
        <time>2024-11-17T08:05:12.000Z</time>
      </trkpt>
      <trkpt lat="44.32152" lon="2.64512">
        <ele>676.5</ele>
        <time>2024-11-17T08:05:22.000Z</time>
      </trkpt>
      <trkpt lat="44.32144" lon="2.64441">
        <ele>678.2</ele>
        <time>2024-11-17T08:05:56.000Z</time>
      </trkpt>
      <trkpt lat="44.32144" lon="2.6433">
        <ele>679</ele>
        <time>2024-11-17T08:06:49.000Z</time>
      </trkpt>
      <trkpt lat="44.32131" lon="2.64129">
        <ele>678.3</ele>
        <time>2024-11-17T08:08:24.000Z</time>
      </trkpt>
      <trkpt lat="44.32112" lon="2.63998">
        <ele>678.1</ele>
        <time>2024-11-17T08:09:27.000Z</time>
      </trkpt>
      <trkpt lat="44.32091" lon="2.63919">
        <ele>679.2</ele>
        <time>2024-11-17T08:10:06.000Z</time>
      </trkpt>
      <trkpt lat="44.32077" lon="2.63891">
        <ele>678.6</ele>
        <time>2024-11-17T08:10:22.000Z</time>
      </trkpt>
      <trkpt lat="44.32066" lon="2.63879">
        <ele>677.8</ele>
        <time>2024-11-17T08:10:31.000Z</time>
      </trkpt>
      <trkpt lat="44.32044" lon="2.63867">
        <ele>676.2</ele>
        <time>2024-11-17T08:10:46.000Z</time>
      </trkpt>
      <trkpt lat="44.31981" lon="2.63798">
        <ele>672.3</ele>
        <time>2024-11-17T08:11:38.000Z</time>
      </trkpt>
      <trkpt lat="44.31938" lon="2.63772">
        <ele>670.6</ele>
        <time>2024-11-17T08:12:08.000Z</time>
      </trkpt>
      <trkpt lat="44.31902" lon="2.63755">
        <ele>670</ele>
        <time>2024-11-17T08:12:33.000Z</time>
      </trkpt>
      <trkpt lat="44.31854" lon="2.63745">
        <ele>669.8</ele>
        <time>2024-11-17T08:13:04.000Z</time>
      </trkpt>
      <trkpt lat="44.31811" lon="2.63725">
        <ele>669</ele>
        <time>2024-11-17T08:13:33.000Z</time>
      </trkpt>
      <trkpt lat="44.31753" lon="2.63712">
        <ele>667.7</ele>
        <time>2024-11-17T08:14:11.000Z</time>
      </trkpt>
      <trkpt lat="44.31693" lon="2.63703">
        <ele>665.3</ele>
        <time>2024-11-17T08:14:51.000Z</time>
      </trkpt>
      <trkpt lat="44.31613" lon="2.63672">
        <ele>661.1</ele>
        <time>2024-11-17T08:15:45.000Z</time>
      </trkpt>
      <trkpt lat="44.31522" lon="2.6365">
        <ele>653.2</ele>
        <time>2024-11-17T08:16:42.000Z</time>
      </trkpt>
      <trkpt lat="44.31509" lon="2.63641">
        <ele>651.9</ele>
        <time>2024-11-17T08:16:51.000Z</time>
      </trkpt>
      <trkpt lat="44.31474" lon="2.636">
        <ele>649.1</ele>
        <time>2024-11-17T08:17:19.000Z</time>
      </trkpt>
      <trkpt lat="44.31443" lon="2.63583">
        <ele>646.8</ele>
        <time>2024-11-17T08:17:39.000Z</time>
      </trkpt>
      <trkpt lat="44.31425" lon="2.63562">
        <ele>645</ele>
        <time>2024-11-17T08:17:54.000Z</time>
      </trkpt>
      <trkpt lat="44.31413" lon="2.63536">
        <ele>644.9</ele>
        <time>2024-11-17T08:18:08.000Z</time>
      </trkpt>
      <trkpt lat="44.3139" lon="2.63465">
        <ele>645.3</ele>
        <time>2024-11-17T08:18:44.000Z</time>
      </trkpt>
      <trkpt lat="44.31354" lon="2.6341">
        <ele>644.2</ele>
        <time>2024-11-17T08:19:18.000Z</time>
      </trkpt>
      <trkpt lat="44.31344" lon="2.63383">
        <ele>643.1</ele>
        <time>2024-11-17T08:19:32.000Z</time>
      </trkpt>
      <trkpt lat="44.31343" lon="2.63324">
        <ele>641.8</ele>
        <time>2024-11-17T08:19:59.000Z</time>
      </trkpt>
      <trkpt lat="44.31345" lon="2.63298">
        <ele>640.6</ele>
        <time>2024-11-17T08:20:11.000Z</time>
      </trkpt>
      <trkpt lat="44.31351" lon="2.6328">
        <ele>640.4</ele>
        <time>2024-11-17T08:20:20.000Z</time>
      </trkpt>
      <trkpt lat="44.31369" lon="2.6325">
        <ele>637.7</ele>
        <time>2024-11-17T08:20:37.000Z</time>
      </trkpt>
      <trkpt lat="44.31373" lon="2.63236">
        <ele>636.6</ele>
        <time>2024-11-17T08:20:44.000Z</time>
      </trkpt>
      <trkpt lat="44.31377" lon="2.63119">
        <ele>624.7</ele>
        <time>2024-11-17T08:21:41.000Z</time>
      </trkpt>
      <trkpt lat="44.31374" lon="2.63093">
        <ele>621.8</ele>
        <time>2024-11-17T08:21:53.000Z</time>
      </trkpt>
      <trkpt lat="44.31364" lon="2.63074">
        <ele>620.9</ele>
        <time>2024-11-17T08:22:05.000Z</time>
      </trkpt>
      <trkpt lat="44.31352" lon="2.63066">
        <ele>619.5</ele>
        <time>2024-11-17T08:22:14.000Z</time>
      </trkpt>
      <trkpt lat="44.31318" lon="2.63071">
        <ele>616.5</ele>
        <time>2024-11-17T08:22:37.000Z</time>
      </trkpt>
      <trkpt lat="44.31296" lon="2.63086">
        <ele>614</ele>
        <time>2024-11-17T08:22:55.000Z</time>
      </trkpt>
      <trkpt lat="44.31291" lon="2.63084">
        <ele>612.6</ele>
        <time>2024-11-17T08:23:00.000Z</time>
      </trkpt>
      <trkpt lat="44.3129" lon="2.63079">
        <ele>611.5</ele>
        <time>2024-11-17T08:23:04.000Z</time>
      </trkpt>
      <trkpt lat="44.31305" lon="2.63025">
        <ele>607.4</ele>
        <time>2024-11-17T08:23:33.000Z</time>
      </trkpt>
      <trkpt lat="44.31317" lon="2.62996">
        <ele>605.3</ele>
        <time>2024-11-17T08:23:50.000Z</time>
      </trkpt>
      <trkpt lat="44.31333" lon="2.62935">
        <ele>597.3</ele>
        <time>2024-11-17T08:24:24.000Z</time>
      </trkpt>
      <trkpt lat="44.31354" lon="2.62895">
        <ele>598.1</ele>
        <time>2024-11-17T08:24:47.000Z</time>
      </trkpt>
      <trkpt lat="44.31375" lon="2.62839">
        <ele>598.1</ele>
        <time>2024-11-17T08:25:17.000Z</time>
      </trkpt>
      <trkpt lat="44.31391" lon="2.62812">
        <ele>598.5</ele>
        <time>2024-11-17T08:25:34.000Z</time>
      </trkpt>
      <trkpt lat="44.31412" lon="2.62741">
        <ele>597.3</ele>
        <time>2024-11-17T08:26:11.000Z</time>
      </trkpt>
      <trkpt lat="44.31451" lon="2.62657">
        <ele>598.1</ele>
        <time>2024-11-17T08:27:01.000Z</time>
      </trkpt>
      <trkpt lat="44.31473" lon="2.62592">
        <ele>596.7</ele>
        <time>2024-11-17T08:27:34.000Z</time>
      </trkpt>
      <trkpt lat="44.31501" lon="2.62543">
        <ele>598.9</ele>
        <time>2024-11-17T08:28:05.000Z</time>
      </trkpt>
      <trkpt lat="44.31596" lon="2.62314">
        <ele>597.2</ele>
        <time>2024-11-17T08:30:07.000Z</time>
      </trkpt>
      <trkpt lat="44.31596" lon="2.62295">
        <ele>596.2</ele>
        <time>2024-11-17T08:30:16.000Z</time>
      </trkpt>
      <trkpt lat="44.3159" lon="2.62272">
        <ele>594.5</ele>
        <time>2024-11-17T08:30:27.000Z</time>
      </trkpt>
      <trkpt lat="44.31592" lon="2.62275">
        <ele>594.8</ele>
        <time>2024-11-17T08:31:51.000Z</time>
      </trkpt>
      <trkpt lat="44.31592" lon="2.62267">
        <ele>594.4</ele>
        <time>2024-11-17T08:31:55.000Z</time>
      </trkpt>
      <trkpt lat="44.31569" lon="2.6222">
        <ele>591</ele>
        <time>2024-11-17T08:32:24.000Z</time>
      </trkpt>
      <trkpt lat="44.31561" lon="2.62189">
        <ele>591.6</ele>
        <time>2024-11-17T08:32:39.000Z</time>
      </trkpt>
      <trkpt lat="44.31561" lon="2.62169">
        <ele>593.6</ele>
        <time>2024-11-17T08:32:48.000Z</time>
      </trkpt>
      <trkpt lat="44.31574" lon="2.62124">
        <ele>597.6</ele>
        <time>2024-11-17T08:33:09.000Z</time>
      </trkpt>
      <trkpt lat="44.31576" lon="2.62094">
        <ele>599.4</ele>
        <time>2024-11-17T08:33:22.000Z</time>
      </trkpt>
      <trkpt lat="44.31562" lon="2.61975">
        <ele>610.5</ele>
        <time>2024-11-17T08:34:27.000Z</time>
      </trkpt>
      <trkpt lat="44.31556" lon="2.61945">
        <ele>613.9</ele>
        <time>2024-11-17T08:34:46.000Z</time>
      </trkpt>
      <trkpt lat="44.31557" lon="2.61902">
        <ele>616.7</ele>
        <time>2024-11-17T08:35:12.000Z</time>
      </trkpt>
      <trkpt lat="44.31551" lon="2.61847">
        <ele>621.7</ele>
        <time>2024-11-17T08:35:41.000Z</time>
      </trkpt>
      <trkpt lat="44.31545" lon="2.61823">
        <ele>622.5</ele>
        <time>2024-11-17T08:35:54.000Z</time>
      </trkpt>
      <trkpt lat="44.31529" lon="2.61796">
        <ele>624.5</ele>
        <time>2024-11-17T08:36:12.000Z</time>
      </trkpt>
      <trkpt lat="44.3152" lon="2.61772">
        <ele>623.7</ele>
        <time>2024-11-17T08:36:27.000Z</time>
      </trkpt>
      <trkpt lat="44.31515" lon="2.61772">
        <ele>623.9</ele>
        <time>2024-11-17T08:39:17.000Z</time>
      </trkpt>
      <trkpt lat="44.31479" lon="2.61726">
        <ele>622.1</ele>
        <time>2024-11-17T08:39:49.000Z</time>
      </trkpt>
      <trkpt lat="44.31459" lon="2.6171">
        <ele>621.6</ele>
        <time>2024-11-17T08:40:04.000Z</time>
      </trkpt>
      <trkpt lat="44.31442" lon="2.61702">
        <ele>621.6</ele>
        <time>2024-11-17T08:40:16.000Z</time>
      </trkpt>
      <trkpt lat="44.31356" lon="2.61736">
        <ele>626.8</ele>
        <time>2024-11-17T08:41:17.000Z</time>
      </trkpt>
      <trkpt lat="44.31304" lon="2.61747">
        <ele>630</ele>
        <time>2024-11-17T08:41:52.000Z</time>
      </trkpt>
      <trkpt lat="44.31252" lon="2.61744">
        <ele>630.8</ele>
        <time>2024-11-17T08:42:26.000Z</time>
      </trkpt>
      <trkpt lat="44.31183" lon="2.61721">
        <ele>629.9</ele>
        <time>2024-11-17T08:43:13.000Z</time>
      </trkpt>
      <trkpt lat="44.31175" lon="2.61727">
        <ele>630.2</ele>
        <time>2024-11-17T08:43:20.000Z</time>
      </trkpt>
      <trkpt lat="44.31142" lon="2.61807">
        <ele>634.1</ele>
        <time>2024-11-17T08:44:06.000Z</time>
      </trkpt>
      <trkpt lat="44.31108" lon="2.61876">
        <ele>636.1</ele>
        <time>2024-11-17T08:44:47.000Z</time>
      </trkpt>
      <trkpt lat="44.31093" lon="2.61899">
        <ele>636.7</ele>
        <time>2024-11-17T08:45:01.000Z</time>
      </trkpt>
      <trkpt lat="44.31078" lon="2.61912">
        <ele>637</ele>
        <time>2024-11-17T08:45:12.000Z</time>
      </trkpt>
      <trkpt lat="44.30962" lon="2.61909">
        <ele>642.9</ele>
        <time>2024-11-17T08:46:32.000Z</time>
      </trkpt>
      <trkpt lat="44.30882" lon="2.61912">
        <ele>645</ele>
        <time>2024-11-17T08:47:25.000Z</time>
      </trkpt>
      <trkpt lat="44.30844" lon="2.61907">
        <ele>644</ele>
        <time>2024-11-17T08:47:51.000Z</time>
      </trkpt>
      <trkpt lat="44.308" lon="2.61928">
        <ele>643.2</ele>
        <time>2024-11-17T08:48:21.000Z</time>
      </trkpt>
      <trkpt lat="44.30719" lon="2.61955">
        <ele>642.3</ele>
        <time>2024-11-17T08:49:16.000Z</time>
      </trkpt>
      <trkpt lat="44.30667" lon="2.61978">
        <ele>641</ele>
        <time>2024-11-17T08:49:52.000Z</time>
      </trkpt>
      <trkpt lat="44.3064" lon="2.61983">
        <ele>639.1</ele>
        <time>2024-11-17T08:50:09.000Z</time>
      </trkpt>
      <trkpt lat="44.30595" lon="2.61985">
        <ele>636.6</ele>
        <time>2024-11-17T08:50:38.000Z</time>
      </trkpt>
      <trkpt lat="44.3058" lon="2.61977">
        <ele>636</ele>
        <time>2024-11-17T08:50:49.000Z</time>
      </trkpt>
      <trkpt lat="44.30572" lon="2.61963">
        <ele>636</ele>
        <time>2024-11-17T08:50:58.000Z</time>
      </trkpt>
      <trkpt lat="44.30562" lon="2.61934">
        <ele>635.7</ele>
        <time>2024-11-17T08:51:13.000Z</time>
      </trkpt>
      <trkpt lat="44.30536" lon="2.61888">
        <ele>635</ele>
        <time>2024-11-17T08:51:40.000Z</time>
      </trkpt>
      <trkpt lat="44.30523" lon="2.61856">
        <ele>635</ele>
        <time>2024-11-17T08:51:57.000Z</time>
      </trkpt>
      <trkpt lat="44.30524" lon="2.61849">
        <ele>635</ele>
        <time>2024-11-17T08:53:13.000Z</time>
      </trkpt>
      <trkpt lat="44.30534" lon="2.61836">
        <ele>634.8</ele>
        <time>2024-11-17T08:53:22.000Z</time>
      </trkpt>
      <trkpt lat="44.30574" lon="2.61799">
        <ele>632.9</ele>
        <time>2024-11-17T08:53:53.000Z</time>
      </trkpt>
      <trkpt lat="44.30614" lon="2.61753">
        <ele>633</ele>
        <time>2024-11-17T08:54:24.000Z</time>
      </trkpt>
      <trkpt lat="44.30643" lon="2.61712">
        <ele>632.8</ele>
        <time>2024-11-17T08:54:50.000Z</time>
      </trkpt>
      <trkpt lat="44.307" lon="2.61614">
        <ele>631.8</ele>
        <time>2024-11-17T08:55:48.000Z</time>
      </trkpt>
      <trkpt lat="44.3074" lon="2.61564">
        <ele>630</ele>
        <time>2024-11-17T08:56:23.000Z</time>
      </trkpt>
      <trkpt lat="44.30777" lon="2.615">
        <ele>629.9</ele>
        <time>2024-11-17T08:57:01.000Z</time>
      </trkpt>
      <trkpt lat="44.30816" lon="2.61464">
        <ele>631.4</ele>
        <time>2024-11-17T08:57:34.000Z</time>
      </trkpt>
      <trkpt lat="44.30841" lon="2.61434">
        <ele>631.9</ele>
        <time>2024-11-17T08:57:55.000Z</time>
      </trkpt>
      <trkpt lat="44.30916" lon="2.61363">
        <ele>635</ele>
        <time>2024-11-17T08:58:57.000Z</time>
      </trkpt>
      <trkpt lat="44.30962" lon="2.61313">
        <ele>638.2</ele>
        <time>2024-11-17T08:59:27.000Z</time>
      </trkpt>
      <trkpt lat="44.31051" lon="2.61235">
        <ele>641.2</ele>
        <time>2024-11-17T09:00:35.000Z</time>
      </trkpt>
      <trkpt lat="44.31064" lon="2.61221">
        <ele>640.4</ele>
        <time>2024-11-17T09:00:46.000Z</time>
      </trkpt>
      <trkpt lat="44.31095" lon="2.61167">
        <ele>637.7</ele>
        <time>2024-11-17T09:01:20.000Z</time>
      </trkpt>
      <trkpt lat="44.31116" lon="2.61138">
        <ele>635.5</ele>
        <time>2024-11-17T09:01:42.000Z</time>
      </trkpt>
      <trkpt lat="44.31127" lon="2.61145">
        <ele>634.1</ele>
        <time>2024-11-17T09:01:55.000Z</time>
      </trkpt>
      <trkpt lat="44.31179" lon="2.61149">
        <ele>627.5</ele>
        <time>2024-11-17T09:02:24.000Z</time>
      </trkpt>
      <trkpt lat="44.31233" lon="2.61133">
        <ele>620.8</ele>
        <time>2024-11-17T09:02:59.000Z</time>
      </trkpt>
      <trkpt lat="44.31306" lon="2.61119">
        <ele>613</ele>
        <time>2024-11-17T09:03:42.000Z</time>
      </trkpt>
      <trkpt lat="44.31352" lon="2.61103">
        <ele>608.9</ele>
        <time>2024-11-17T09:04:11.000Z</time>
      </trkpt>
      <trkpt lat="44.31392" lon="2.61082">
        <ele>604.4</ele>
        <time>2024-11-17T09:04:38.000Z</time>
      </trkpt>
      <trkpt lat="44.31395" lon="2.61067">
        <ele>603.2</ele>
        <time>2024-11-17T09:04:47.000Z</time>
      </trkpt>
      <trkpt lat="44.31384" lon="2.61034">
        <ele>603.7</ele>
        <time>2024-11-17T09:05:04.000Z</time>
      </trkpt>
      <trkpt lat="44.31372" lon="2.60971">
        <ele>604.4</ele>
        <time>2024-11-17T09:05:34.000Z</time>
      </trkpt>
      <trkpt lat="44.31344" lon="2.60802">
        <ele>602.5</ele>
        <time>2024-11-17T09:06:59.000Z</time>
      </trkpt>
      <trkpt lat="44.31368" lon="2.60802">
        <ele>599.8</ele>
        <time>2024-11-17T09:09:59.000Z</time>
      </trkpt>
      <trkpt lat="44.31394" lon="2.60772">
        <ele>596.3</ele>
        <time>2024-11-17T09:10:20.000Z</time>
      </trkpt>
      <trkpt lat="44.31448" lon="2.60678">
        <ele>589.9</ele>
        <time>2024-11-17T09:11:16.000Z</time>
      </trkpt>
      <trkpt lat="44.31502" lon="2.60599">
        <ele>583.9</ele>
        <time>2024-11-17T09:12:09.000Z</time>
      </trkpt>
      <trkpt lat="44.31508" lon="2.60584">
        <ele>583.7</ele>
        <time>2024-11-17T09:12:20.000Z</time>
      </trkpt>
      <trkpt lat="44.31544" lon="2.60569">
        <ele>583.3</ele>
        <time>2024-11-17T09:12:46.000Z</time>
      </trkpt>
      <trkpt lat="44.31555" lon="2.60559">
        <ele>583.1</ele>
        <time>2024-11-17T09:12:55.000Z</time>
      </trkpt>
      <trkpt lat="44.31648" lon="2.60427">
        <ele>587</ele>
        <time>2024-11-17T09:14:15.000Z</time>
      </trkpt>
      <trkpt lat="44.31691" lon="2.60393">
        <ele>588.7</ele>
        <time>2024-11-17T09:14:48.000Z</time>
      </trkpt>
      <trkpt lat="44.31773" lon="2.60299">
        <ele>595.4</ele>
        <time>2024-11-17T09:15:59.000Z</time>
      </trkpt>
      <trkpt lat="44.3182" lon="2.6022">
        <ele>599.5</ele>
        <time>2024-11-17T09:16:40.000Z</time>
      </trkpt>
      <trkpt lat="44.31845" lon="2.60183">
        <ele>600.5</ele>
        <time>2024-11-17T09:17:06.000Z</time>
      </trkpt>
      <trkpt lat="44.31894" lon="2.60131">
        <ele>602</ele>
        <time>2024-11-17T09:17:49.000Z</time>
      </trkpt>
      <trkpt lat="44.31943" lon="2.60086">
        <ele>601.2</ele>
        <time>2024-11-17T09:18:28.000Z</time>
      </trkpt>
      <trkpt lat="44.32048" lon="2.6">
        <ele>597.7</ele>
        <time>2024-11-17T09:19:47.000Z</time>
      </trkpt>
      <trkpt lat="44.32071" lon="2.59975">
        <ele>599</ele>
        <time>2024-11-17T09:20:07.000Z</time>
      </trkpt>
      <trkpt lat="44.32115" lon="2.59938">
        <ele>601</ele>
        <time>2024-11-17T09:20:44.000Z</time>
      </trkpt>
      <trkpt lat="44.32264" lon="2.59802">
        <ele>603.5</ele>
        <time>2024-11-17T09:22:40.000Z</time>
      </trkpt>
      <trkpt lat="44.32296" lon="2.59753">
        <ele>603.7</ele>
        <time>2024-11-17T09:23:12.000Z</time>
      </trkpt>
      <trkpt lat="44.32339" lon="2.597">
        <ele>604</ele>
        <time>2024-11-17T09:23:50.000Z</time>
      </trkpt>
      <trkpt lat="44.32382" lon="2.59623">
        <ele>600.7</ele>
        <time>2024-11-17T09:24:38.000Z</time>
      </trkpt>
      <trkpt lat="44.32402" lon="2.59571">
        <ele>596.3</ele>
        <time>2024-11-17T09:25:06.000Z</time>
      </trkpt>
      <trkpt lat="44.32414" lon="2.59499">
        <ele>599.6</ele>
        <time>2024-11-17T09:25:39.000Z</time>
      </trkpt>
      <trkpt lat="44.32429" lon="2.59465">
        <ele>602.6</ele>
        <time>2024-11-17T09:25:54.000Z</time>
      </trkpt>
      <trkpt lat="44.32449" lon="2.59442">
        <ele>604.4</ele>
        <time>2024-11-17T09:26:08.000Z</time>
      </trkpt>
      <trkpt lat="44.32469" lon="2.59411">
        <ele>606.1</ele>
        <time>2024-11-17T09:26:25.000Z</time>
      </trkpt>
      <trkpt lat="44.3249" lon="2.59393">
        <ele>607.6</ele>
        <time>2024-11-17T09:26:43.000Z</time>
      </trkpt>
      <trkpt lat="44.32564" lon="2.59293">
        <ele>609.1</ele>
        <time>2024-11-17T09:27:56.000Z</time>
      </trkpt>
      <trkpt lat="44.32609" lon="2.59249">
        <ele>607.1</ele>
        <time>2024-11-17T09:28:31.000Z</time>
      </trkpt>
      <trkpt lat="44.32615" lon="2.59251">
        <ele>606.7</ele>
        <time>2024-11-17T09:28:36.000Z</time>
      </trkpt>
      <trkpt lat="44.32618" lon="2.59259">
        <ele>606.5</ele>
        <time>2024-11-17T09:28:41.000Z</time>
      </trkpt>
      <trkpt lat="44.32623" lon="2.59317">
        <ele>607</ele>
        <time>2024-11-17T09:29:09.000Z</time>
      </trkpt>
      <trkpt lat="44.32647" lon="2.59411">
        <ele>607.4</ele>
        <time>2024-11-17T09:29:56.000Z</time>
      </trkpt>
      <trkpt lat="44.32672" lon="2.59463">
        <ele>607.3</ele>
        <time>2024-11-17T09:30:26.000Z</time>
      </trkpt>
      <trkpt lat="44.32692" lon="2.59485">
        <ele>609.2</ele>
        <time>2024-11-17T09:30:45.000Z</time>
      </trkpt>
      <trkpt lat="44.32729" lon="2.59511">
        <ele>611.3</ele>
        <time>2024-11-17T09:31:14.000Z</time>
      </trkpt>
      <trkpt lat="44.32772" lon="2.59563">
        <ele>612.6</ele>
        <time>2024-11-17T09:31:52.000Z</time>
      </trkpt>
      <trkpt lat="44.32794" lon="2.59596">
        <ele>613.7</ele>
        <time>2024-11-17T09:32:15.000Z</time>
      </trkpt>
      <trkpt lat="44.32833" lon="2.59627">
        <ele>615.4</ele>
        <time>2024-11-17T09:32:47.000Z</time>
      </trkpt>
      <trkpt lat="44.32939" lon="2.59744">
        <ele>618</ele>
        <time>2024-11-17T09:34:18.000Z</time>
      </trkpt>
      <trkpt lat="44.32968" lon="2.59792">
        <ele>618.9</ele>
        <time>2024-11-17T09:34:48.000Z</time>
      </trkpt>
      <trkpt lat="44.32989" lon="2.59816">
        <ele>619.6</ele>
        <time>2024-11-17T09:35:08.000Z</time>
      </trkpt>
      <trkpt lat="44.33026" lon="2.59848">
        <ele>621.8</ele>
        <time>2024-11-17T09:35:37.000Z</time>
      </trkpt>
      <trkpt lat="44.33078" lon="2.59911">
        <ele>622</ele>
        <time>2024-11-17T09:36:24.000Z</time>
      </trkpt>
      <trkpt lat="44.3308" lon="2.5993">
        <ele>621.6</ele>
        <time>2024-11-17T09:36:34.000Z</time>
      </trkpt>
      <trkpt lat="44.33071" lon="2.59977">
        <ele>621.1</ele>
        <time>2024-11-17T09:36:57.000Z</time>
      </trkpt>
      <trkpt lat="44.33073" lon="2.60011">
        <ele>621.4</ele>
        <time>2024-11-17T09:37:14.000Z</time>
      </trkpt>
      <trkpt lat="44.3306" lon="2.6006">
        <ele>621.9</ele>
        <time>2024-11-17T09:37:40.000Z</time>
      </trkpt>
      <trkpt lat="44.33063" lon="2.60091">
        <ele>621.8</ele>
        <time>2024-11-17T09:37:55.000Z</time>
      </trkpt>
      <trkpt lat="44.33081" lon="2.60152">
        <ele>622.5</ele>
        <time>2024-11-17T09:38:27.000Z</time>
      </trkpt>
      <trkpt lat="44.33109" lon="2.602">
        <ele>623.2</ele>
        <time>2024-11-17T09:38:57.000Z</time>
      </trkpt>
      <trkpt lat="44.3313" lon="2.60256">
        <ele>624.7</ele>
        <time>2024-11-17T09:39:28.000Z</time>
      </trkpt>
      <trkpt lat="44.33137" lon="2.60289">
        <ele>625.4</ele>
        <time>2024-11-17T09:39:45.000Z</time>
      </trkpt>
      <trkpt lat="44.3314" lon="2.60352">
        <ele>627</ele>
        <time>2024-11-17T09:40:16.000Z</time>
      </trkpt>
      <trkpt lat="44.33148" lon="2.60391">
        <ele>627.1</ele>
        <time>2024-11-17T09:40:36.000Z</time>
      </trkpt>
      <trkpt lat="44.33156" lon="2.60467">
        <ele>627.4</ele>
        <time>2024-11-17T09:41:14.000Z</time>
      </trkpt>
      <trkpt lat="44.33169" lon="2.60538">
        <ele>627.9</ele>
        <time>2024-11-17T09:41:49.000Z</time>
      </trkpt>
      <trkpt lat="44.33168" lon="2.60593">
        <ele>626.9</ele>
        <time>2024-11-17T09:42:14.000Z</time>
      </trkpt>
      <trkpt lat="44.3317" lon="2.60621">
        <ele>626.8</ele>
        <time>2024-11-17T09:42:28.000Z</time>
      </trkpt>
      <trkpt lat="44.33186" lon="2.60658">
        <ele>626.5</ele>
        <time>2024-11-17T09:42:49.000Z</time>
      </trkpt>
      <trkpt lat="44.33216" lon="2.60707">
        <ele>627.7</ele>
        <time>2024-11-17T09:43:20.000Z</time>
      </trkpt>
      <trkpt lat="44.3322" lon="2.60724">
        <ele>628.1</ele>
        <time>2024-11-17T09:43:28.000Z</time>
      </trkpt>
      <trkpt lat="44.3322" lon="2.60742">
        <ele>628.8</ele>
        <time>2024-11-17T09:43:35.000Z</time>
      </trkpt>
      <trkpt lat="44.33211" lon="2.60773">
        <ele>630.2</ele>
        <time>2024-11-17T09:43:47.000Z</time>
      </trkpt>
      <trkpt lat="44.33181" lon="2.60819">
        <ele>632.9</ele>
        <time>2024-11-17T09:44:12.000Z</time>
      </trkpt>
      <trkpt lat="44.33135" lon="2.60856">
        <ele>634.7</ele>
        <time>2024-11-17T09:44:50.000Z</time>
      </trkpt>
      <trkpt lat="44.33077" lon="2.60926">
        <ele>637.7</ele>
        <time>2024-11-17T09:45:42.000Z</time>
      </trkpt>
      <trkpt lat="44.33059" lon="2.60943">
        <ele>639.7</ele>
        <time>2024-11-17T09:45:55.000Z</time>
      </trkpt>
      <trkpt lat="44.33014" lon="2.60966">
        <ele>642.7</ele>
        <time>2024-11-17T09:46:21.000Z</time>
      </trkpt>
      <trkpt lat="44.32984" lon="2.60992">
        <ele>644.4</ele>
        <time>2024-11-17T09:46:45.000Z</time>
      </trkpt>
      <trkpt lat="44.32911" lon="2.61082">
        <ele>648.2</ele>
        <time>2024-11-17T09:47:55.000Z</time>
      </trkpt>
      <trkpt lat="44.32877" lon="2.61131">
        <ele>649.8</ele>
        <time>2024-11-17T09:48:28.000Z</time>
      </trkpt>
      <trkpt lat="44.32857" lon="2.6117">
        <ele>651</ele>
        <time>2024-11-17T09:48:51.000Z</time>
      </trkpt>
      <trkpt lat="44.32816" lon="2.61236">
        <ele>652.3</ele>
        <time>2024-11-17T09:49:35.000Z</time>
      </trkpt>
      <trkpt lat="44.3276" lon="2.61376">
        <ele>654</ele>
        <time>2024-11-17T09:50:53.000Z</time>
      </trkpt>
      <trkpt lat="44.32731" lon="2.61502">
        <ele>655</ele>
        <time>2024-11-17T09:51:58.000Z</time>
      </trkpt>
      <trkpt lat="44.32708" lon="2.61622">
        <ele>654.5</ele>
        <time>2024-11-17T09:52:57.000Z</time>
      </trkpt>
      <trkpt lat="44.32691" lon="2.61684">
        <ele>654.6</ele>
        <time>2024-11-17T09:53:29.000Z</time>
      </trkpt>
      <trkpt lat="44.32686" lon="2.61717">
        <ele>654.7</ele>
        <time>2024-11-17T09:53:45.000Z</time>
      </trkpt>
      <trkpt lat="44.32676" lon="2.61759">
        <ele>654.3</ele>
        <time>2024-11-17T09:54:06.000Z</time>
      </trkpt>
      <trkpt lat="44.32673" lon="2.61806">
        <ele>654</ele>
        <time>2024-11-17T09:54:29.000Z</time>
      </trkpt>
      <trkpt lat="44.32659" lon="2.61875">
        <ele>652.7</ele>
        <time>2024-11-17T09:55:03.000Z</time>
      </trkpt>
      <trkpt lat="44.32638" lon="2.61945">
        <ele>653</ele>
        <time>2024-11-17T09:55:40.000Z</time>
      </trkpt>
      <trkpt lat="44.32624" lon="2.61974">
        <ele>652.6</ele>
        <time>2024-11-17T09:55:57.000Z</time>
      </trkpt>
      <trkpt lat="44.32609" lon="2.62034">
        <ele>653.3</ele>
        <time>2024-11-17T09:56:26.000Z</time>
      </trkpt>
      <trkpt lat="44.32592" lon="2.62071">
        <ele>654.7</ele>
        <time>2024-11-17T09:56:47.000Z</time>
      </trkpt>
      <trkpt lat="44.32584" lon="2.62098">
        <ele>655.5</ele>
        <time>2024-11-17T09:57:01.000Z</time>
      </trkpt>
      <trkpt lat="44.32583" lon="2.62134">
        <ele>656</ele>
        <time>2024-11-17T09:57:17.000Z</time>
      </trkpt>
      <trkpt lat="44.32611" lon="2.62297">
        <ele>658.7</ele>
        <time>2024-11-17T09:58:37.000Z</time>
      </trkpt>
      <trkpt lat="44.32609" lon="2.62347">
        <ele>659.5</ele>
        <time>2024-11-17T09:59:02.000Z</time>
      </trkpt>
      <trkpt lat="44.32601" lon="2.62402">
        <ele>661.5</ele>
        <time>2024-11-17T09:59:30.000Z</time>
      </trkpt>
      <trkpt lat="44.32605" lon="2.62462">
        <ele>663.5</ele>
        <time>2024-11-17T09:59:59.000Z</time>
      </trkpt>
      <trkpt lat="44.32599" lon="2.62555">
        <ele>665.6</ele>
        <time>2024-11-17T10:00:42.000Z</time>
      </trkpt>
      <trkpt lat="44.32591" lon="2.62612">
        <ele>667.3</ele>
        <time>2024-11-17T10:01:03.000Z</time>
      </trkpt>
      <trkpt lat="44.32564" lon="2.62685">
        <ele>668</ele>
        <time>2024-11-17T10:01:39.000Z</time>
      </trkpt>
      <trkpt lat="44.32539" lon="2.62799">
        <ele>669.6</ele>
        <time>2024-11-17T10:02:37.000Z</time>
      </trkpt>
      <trkpt lat="44.32502" lon="2.62915">
        <ele>668.1</ele>
        <time>2024-11-17T10:03:37.000Z</time>
      </trkpt>
      <trkpt lat="44.32487" lon="2.62987">
        <ele>667.5</ele>
        <time>2024-11-17T10:04:14.000Z</time>
      </trkpt>
      <trkpt lat="44.32485" lon="2.63033">
        <ele>667.9</ele>
        <time>2024-11-17T10:04:36.000Z</time>
      </trkpt>
      <trkpt lat="44.32472" lon="2.63087">
        <ele>668.1</ele>
        <time>2024-11-17T10:05:04.000Z</time>
      </trkpt>
      <trkpt lat="44.32455" lon="2.63129">
        <ele>669.4</ele>
        <time>2024-11-17T10:05:27.000Z</time>
      </trkpt>
      <trkpt lat="44.32422" lon="2.63188">
        <ele>671.6</ele>
        <time>2024-11-17T10:06:02.000Z</time>
      </trkpt>
      <trkpt lat="44.32383" lon="2.63279">
        <ele>673.8</ele>
        <time>2024-11-17T10:06:52.000Z</time>
      </trkpt>
      <trkpt lat="44.32308" lon="2.63436">
        <ele>675.9</ele>
        <time>2024-11-17T10:08:21.000Z</time>
      </trkpt>
      <trkpt lat="44.32208" lon="2.63636">
        <ele>680.9</ele>
        <time>2024-11-17T10:10:15.000Z</time>
      </trkpt>
      <trkpt lat="44.32171" lon="2.637">
        <ele>681.1</ele>
        <time>2024-11-17T10:10:56.000Z</time>
      </trkpt>
      <trkpt lat="44.32144" lon="2.63769">
        <ele>681.1</ele>
        <time>2024-11-17T10:11:32.000Z</time>
      </trkpt>
      <trkpt lat="44.3214" lon="2.63864">
        <ele>680.8</ele>
        <time>2024-11-17T10:12:17.000Z</time>
      </trkpt>
      <trkpt lat="44.32127" lon="2.64052">
        <ele>678</ele>
        <time>2024-11-17T10:13:46.000Z</time>
      </trkpt>
      <trkpt lat="44.3213" lon="2.64104">
        <ele>678.2</ele>
        <time>2024-11-17T10:14:10.000Z</time>
      </trkpt>
      <trkpt lat="44.32141" lon="2.64164">
        <ele>678.8</ele>
        <time>2024-11-17T10:14:40.000Z</time>
      </trkpt>
      <trkpt lat="44.32141" lon="2.64206">
        <ele>678.9</ele>
        <time>2024-11-17T10:15:00.000Z</time>
      </trkpt>
      <trkpt lat="44.32149" lon="2.6436">
        <ele>679</ele>
        <time>2024-11-17T10:16:13.000Z</time>
      </trkpt>
      <trkpt lat="44.32146" lon="2.64429">
        <ele>678.3</ele>
        <time>2024-11-17T10:16:45.000Z</time>
      </trkpt>
      <trkpt lat="44.32159" lon="2.64506">
        <ele>677.2</ele>
        <time>2024-11-17T10:17:23.000Z</time>
      </trkpt>
      <trkpt lat="44.32157" lon="2.64534">
        <ele>676.4</ele>
        <time>2024-11-17T10:17:36.000Z</time>
      </trkpt>
      <trkpt lat="44.3215" lon="2.64572">
        <ele>676.8</ele>
        <time>2024-11-17T10:17:54.000Z</time>
      </trkpt>
      <trkpt lat="44.32157" lon="2.64605">
        <ele>677</ele>
        <time>2024-11-17T10:18:11.000Z</time>
      </trkpt>
      <trkpt lat="44.32157" lon="2.64636">
        <ele>677.3</ele>
        <time>2024-11-17T10:18:26.000Z</time>
      </trkpt>
      <trkpt lat="44.32166" lon="2.64645">
        <ele>677</ele>
        <time>2024-11-17T10:18:35.000Z</time>
      </trkpt>
      <trkpt lat="44.3222" lon="2.64657">
        <ele>672.6</ele>
        <time>2024-11-17T10:19:11.000Z</time>
      </trkpt>
      <trkpt lat="44.32242" lon="2.64675">
        <ele>669.9</ele>
        <time>2024-11-17T10:19:27.000Z</time>
      </trkpt>
      <trkpt lat="44.32265" lon="2.64707">
        <ele>667.1</ele>
        <time>2024-11-17T10:19:48.000Z</time>
      </trkpt>
      <trkpt lat="44.32287" lon="2.64792">
        <ele>665.3</ele>
        <time>2024-11-17T10:20:30.000Z</time>
      </trkpt>
      <trkpt lat="44.32302" lon="2.64816">
        <ele>664.3</ele>
        <time>2024-11-17T10:20:46.000Z</time>
      </trkpt>
      <trkpt lat="44.32311" lon="2.6481">
        <ele>663.6</ele>
        <time>2024-11-17T10:20:54.000Z</time>
      </trkpt>
      <trkpt lat="44.32342" lon="2.64753">
        <ele>661.7</ele>
        <time>2024-11-17T10:21:28.000Z</time>
      </trkpt>
      <trkpt lat="44.32372" lon="2.64738">
        <ele>660</ele>
        <time>2024-11-17T10:21:50.000Z</time>
      </trkpt>
      <trkpt lat="44.32385" lon="2.64723">
        <ele>659.1</ele>
        <time>2024-11-17T10:22:01.000Z</time>
      </trkpt>
      <trkpt lat="44.32416" lon="2.64644">
        <ele>657.9</ele>
        <time>2024-11-17T10:22:43.000Z</time>
      </trkpt>
      <trkpt lat="44.32435" lon="2.64576">
        <ele>656.8</ele>
        <time>2024-11-17T10:23:16.000Z</time>
      </trkpt>
      <trkpt lat="44.32447" lon="2.64545">
        <ele>656.6</ele>
        <time>2024-11-17T10:23:32.000Z</time>
      </trkpt>
      <trkpt lat="44.32483" lon="2.64472">
        <ele>654</ele>
        <time>2024-11-17T10:24:13.000Z</time>
      </trkpt>
      <trkpt lat="44.32496" lon="2.6441">
        <ele>652.5</ele>
        <time>2024-11-17T10:24:44.000Z</time>
      </trkpt>
      <trkpt lat="44.32499" lon="2.64361">
        <ele>651.2</ele>
        <time>2024-11-17T10:25:07.000Z</time>
      </trkpt>
      <trkpt lat="44.32491" lon="2.64303">
        <ele>650.1</ele>
        <time>2024-11-17T10:25:35.000Z</time>
      </trkpt>
      <trkpt lat="44.3248" lon="2.64251">
        <ele>647.6</ele>
        <time>2024-11-17T10:26:01.000Z</time>
      </trkpt>
      <trkpt lat="44.32475" lon="2.64204">
        <ele>644.9</ele>
        <time>2024-11-17T10:26:24.000Z</time>
      </trkpt>
      <trkpt lat="44.32475" lon="2.64177">
        <ele>644.3</ele>
        <time>2024-11-17T10:26:37.000Z</time>
      </trkpt>
      <trkpt lat="44.3248" lon="2.64117">
        <ele>643.3</ele>
        <time>2024-11-17T10:27:06.000Z</time>
      </trkpt>
      <trkpt lat="44.32461" lon="2.6408">
        <ele>647.7</ele>
        <time>2024-11-17T10:27:27.000Z</time>
      </trkpt>
      <trkpt lat="44.32457" lon="2.64065">
        <ele>648.5</ele>
        <time>2024-11-17T10:27:35.000Z</time>
      </trkpt>
      <trkpt lat="44.32463" lon="2.64049">
        <ele>648.2</ele>
        <time>2024-11-17T10:27:44.000Z</time>
      </trkpt>
      <trkpt lat="44.32482" lon="2.64032">
        <ele>646</ele>
        <time>2024-11-17T10:28:00.000Z</time>
      </trkpt>
      <trkpt lat="44.32491" lon="2.6402">
        <ele>645.1</ele>
        <time>2024-11-17T10:28:09.000Z</time>
      </trkpt>
      <trkpt lat="44.32518" lon="2.63945">
        <ele>646</ele>
        <time>2024-11-17T10:28:48.000Z</time>
      </trkpt>
      <trkpt lat="44.32518" lon="2.63927">
        <ele>647.1</ele>
        <time>2024-11-17T10:28:57.000Z</time>
      </trkpt>
      <trkpt lat="44.32498" lon="2.63873">
        <ele>652.2</ele>
        <time>2024-11-17T10:29:21.000Z</time>
      </trkpt>
      <trkpt lat="44.325" lon="2.63855">
        <ele>653.2</ele>
        <time>2024-11-17T10:29:29.000Z</time>
      </trkpt>
      <trkpt lat="44.32545" lon="2.63802">
        <ele>654</ele>
        <time>2024-11-17T10:30:10.000Z</time>
      </trkpt>
      <trkpt lat="44.3259" lon="2.63779">
        <ele>652.2</ele>
        <time>2024-11-17T10:30:42.000Z</time>
      </trkpt>
      <trkpt lat="44.32635" lon="2.63765">
        <ele>648.4</ele>
        <time>2024-11-17T10:31:12.000Z</time>
      </trkpt>
      <trkpt lat="44.32668" lon="2.63737">
        <ele>646.1</ele>
        <time>2024-11-17T10:31:38.000Z</time>
      </trkpt>
      <trkpt lat="44.32728" lon="2.63644">
        <ele>639</ele>
        <time>2024-11-17T10:32:36.000Z</time>
      </trkpt>
      <trkpt lat="44.32759" lon="2.63575">
        <ele>633.7</ele>
        <time>2024-11-17T10:33:14.000Z</time>
      </trkpt>
      <trkpt lat="44.32767" lon="2.63547">
        <ele>631.6</ele>
        <time>2024-11-17T10:33:28.000Z</time>
      </trkpt>
      <trkpt lat="44.32775" lon="2.63487">
        <ele>628.6</ele>
        <time>2024-11-17T10:33:55.000Z</time>
      </trkpt>
      <trkpt lat="44.32773" lon="2.63437">
        <ele>625.6</ele>
        <time>2024-11-17T10:34:19.000Z</time>
      </trkpt>
      <trkpt lat="44.32785" lon="2.6341">
        <ele>625.3</ele>
        <time>2024-11-17T10:34:34.000Z</time>
      </trkpt>
      <trkpt lat="44.32793" lon="2.63403">
        <ele>625.4</ele>
        <time>2024-11-17T10:34:40.000Z</time>
      </trkpt>
      <trkpt lat="44.32828" lon="2.63396">
        <ele>621.7</ele>
        <time>2024-11-17T10:35:02.000Z</time>
      </trkpt>
      <trkpt lat="44.32871" lon="2.63351">
        <ele>618</ele>
        <time>2024-11-17T10:35:37.000Z</time>
      </trkpt>
      <trkpt lat="44.32921" lon="2.63317">
        <ele>612.7</ele>
        <time>2024-11-17T10:36:12.000Z</time>
      </trkpt>
      <trkpt lat="44.32936" lon="2.63313">
        <ele>611.6</ele>
        <time>2024-11-17T10:36:23.000Z</time>
      </trkpt>
      <trkpt lat="44.32967" lon="2.63325">
        <ele>611.5</ele>
        <time>2024-11-17T10:36:44.000Z</time>
      </trkpt>
      <trkpt lat="44.32978" lon="2.63321">
        <ele>612.2</ele>
        <time>2024-11-17T10:36:52.000Z</time>
      </trkpt>
      <trkpt lat="44.33003" lon="2.63267">
        <ele>613</ele>
        <time>2024-11-17T10:37:23.000Z</time>
      </trkpt>
      <trkpt lat="44.33035" lon="2.63223">
        <ele>615.1</ele>
        <time>2024-11-17T10:37:53.000Z</time>
      </trkpt>
      <trkpt lat="44.33087" lon="2.63137">
        <ele>616.3</ele>
        <time>2024-11-17T10:38:47.000Z</time>
      </trkpt>
      <trkpt lat="44.33102" lon="2.63106">
        <ele>615.5</ele>
        <time>2024-11-17T10:39:04.000Z</time>
      </trkpt>
      <trkpt lat="44.3316" lon="2.63026">
        <ele>616.7</ele>
        <time>2024-11-17T10:39:58.000Z</time>
      </trkpt>
      <trkpt lat="44.33183" lon="2.62979">
        <ele>614.1</ele>
        <time>2024-11-17T10:40:25.000Z</time>
      </trkpt>
      <trkpt lat="44.33216" lon="2.62938">
        <ele>612.5</ele>
        <time>2024-11-17T10:40:55.000Z</time>
      </trkpt>
      <trkpt lat="44.33243" lon="2.62922">
        <ele>610.7</ele>
        <time>2024-11-17T10:41:14.000Z</time>
      </trkpt>
      <trkpt lat="44.33266" lon="2.62917">
        <ele>609.4</ele>
        <time>2024-11-17T10:41:29.000Z</time>
      </trkpt>
      <trkpt lat="44.33296" lon="2.62904">
        <ele>607.9</ele>
        <time>2024-11-17T10:41:50.000Z</time>
      </trkpt>
      <trkpt lat="44.33343" lon="2.62901">
        <ele>607.9</ele>
        <time>2024-11-17T10:42:21.000Z</time>
      </trkpt>
      <trkpt lat="44.33373" lon="2.62909">
        <ele>611.8</ele>
        <time>2024-11-17T10:42:42.000Z</time>
      </trkpt>
      <trkpt lat="44.33418" lon="2.62946">
        <ele>618.1</ele>
        <time>2024-11-17T10:43:22.000Z</time>
      </trkpt>
      <trkpt lat="44.33432" lon="2.62952">
        <ele>620.9</ele>
        <time>2024-11-17T10:43:35.000Z</time>
      </trkpt>
      <trkpt lat="44.33452" lon="2.62942">
        <ele>626.7</ele>
        <time>2024-11-17T10:44:58.000Z</time>
      </trkpt>
      <trkpt lat="44.33461" lon="2.6293">
        <ele>629.4</ele>
        <time>2024-11-17T10:45:10.000Z</time>
      </trkpt>
      <trkpt lat="44.33483" lon="2.62912">
        <ele>633.5</ele>
        <time>2024-11-17T10:45:28.000Z</time>
      </trkpt>
      <trkpt lat="44.33482" lon="2.62908">
        <ele>633.7</ele>
        <time>2024-11-17T10:46:29.000Z</time>
      </trkpt>
      <trkpt lat="44.3349" lon="2.62901">
        <ele>635</ele>
        <time>2024-11-17T10:46:35.000Z</time>
      </trkpt>
      <trkpt lat="44.33524" lon="2.62883">
        <ele>641.1</ele>
        <time>2024-11-17T10:47:03.000Z</time>
      </trkpt>
      <trkpt lat="44.33532" lon="2.62882">
        <ele>642.1</ele>
        <time>2024-11-17T10:47:10.000Z</time>
      </trkpt>
      <trkpt lat="44.33541" lon="2.62888">
        <ele>642</ele>
        <time>2024-11-17T10:47:18.000Z</time>
      </trkpt>
      <trkpt lat="44.33549" lon="2.62904">
        <ele>641.3</ele>
        <time>2024-11-17T10:47:27.000Z</time>
      </trkpt>
      <trkpt lat="44.33566" lon="2.62965">
        <ele>640.3</ele>
        <time>2024-11-17T10:47:59.000Z</time>
      </trkpt>
      <trkpt lat="44.33565" lon="2.63034">
        <ele>637.9</ele>
        <time>2024-11-17T10:48:31.000Z</time>
      </trkpt>
      <trkpt lat="44.3357" lon="2.63053">
        <ele>638.2</ele>
        <time>2024-11-17T10:48:42.000Z</time>
      </trkpt>
      <trkpt lat="44.33637" lon="2.63066">
        <ele>643.9</ele>
        <time>2024-11-17T10:49:26.000Z</time>
      </trkpt>
      <trkpt lat="44.33674" lon="2.63069">
        <ele>646.5</ele>
        <time>2024-11-17T10:49:53.000Z</time>
      </trkpt>
      <trkpt lat="44.33746" lon="2.63091">
        <ele>652.8</ele>
        <time>2024-11-17T10:50:46.000Z</time>
      </trkpt>
      <trkpt lat="44.33754" lon="2.63082">
        <ele>653.4</ele>
        <time>2024-11-17T10:50:55.000Z</time>
      </trkpt>
      <trkpt lat="44.33769" lon="2.6302">
        <ele>652.8</ele>
        <time>2024-11-17T10:51:25.000Z</time>
      </trkpt>
      <trkpt lat="44.33768" lon="2.63002">
        <ele>652.4</ele>
        <time>2024-11-17T10:51:34.000Z</time>
      </trkpt>
      <trkpt lat="44.33763" lon="2.62992">
        <ele>651.9</ele>
        <time>2024-11-17T10:51:41.000Z</time>
      </trkpt>
      <trkpt lat="44.33758" lon="2.6299">
        <ele>651.6</ele>
        <time>2024-11-17T10:51:45.000Z</time>
      </trkpt>
    </trkseg>
  </trk>
</gpx>